sensor_id;sensor_type;location;lat;lon;timestamp;pressure;altitude;pressure_sealevel;temperature;humidity
70248;BME280;57641;51.416;5.506;2023-09-18T00:02:10;100689.16;;;24.53;64.32
70248;BME280;57641;51.416;5.506;2023-09-18T00:04:36;100691.88;;;24.53;64.31
70248;BME280;57641;51.416;5.506;2023-09-18T00:07:01;100681.47;;;24.50;64.30
70248;BME280;57641;51.416;5.506;2023-09-18T00:09:27;100680.88;;;24.48;64.57
70248;BME280;57641;51.416;5.506;2023-09-18T00:11:52;100677.25;;;24.43;64.71
70248;BME280;57641;51.416;5.506;2023-09-18T00:14:18;100673.19;;;24.45;64.37
70248;BME280;57641;51.416;5.506;2023-09-18T00:16:43;100665.25;;;24.44;64.50
70248;BME280;57641;51.416;5.506;2023-09-18T00:19:09;100660.09;;;24.42;64.41
70248;BME280;57641;51.416;5.506;2023-09-18T00:21:36;100656.25;;;24.43;64.32
70248;BME280;57641;51.416;5.506;2023-09-18T00:24:03;100654.03;;;24.40;64.31
70248;BME280;57641;51.416;5.506;2023-09-18T00:26:29;100649.59;;;24.34;64.59
70248;BME280;57641;51.416;5.506;2023-09-18T00:28:54;100639.81;;;24.38;64.21
70248;BME280;57641;51.416;5.506;2023-09-18T00:31:20;100638.13;;;24.32;64.28
70248;BME280;57641;51.416;5.506;2023-09-18T00:33:45;100634.38;;;24.38;64.14
70248;BME280;57641;51.416;5.506;2023-09-18T00:36:11;100625.38;;;24.37;64.15
70248;BME280;57641;51.416;5.506;2023-09-18T00:38:36;100617.78;;;24.39;64.37
70248;BME280;57641;51.416;5.506;2023-09-18T00:41:02;100613.41;;;24.38;64.21
70248;BME280;57641;51.416;5.506;2023-09-18T00:43:31;100604.75;;;24.42;64.14
70248;BME280;57641;51.416;5.506;2023-09-18T00:46:00;100612.59;;;24.38;64.51
70248;BME280;57641;51.416;5.506;2023-09-18T00:48:26;100613.16;;;24.40;64.27
70248;BME280;57641;51.416;5.506;2023-09-18T00:50:53;100609.03;;;24.37;64.37
70248;BME280;57641;51.416;5.506;2023-09-18T00:53:22;100603.91;;;24.41;64.32
70248;BME280;57641;51.416;5.506;2023-09-18T00:55:50;100597.13;;;24.44;64.17
70248;BME280;57641;51.416;5.506;2023-09-18T00:58:18;100595.22;;;24.44;64.20
70248;BME280;57641;51.416;5.506;2023-09-18T01:00:44;100596.66;;;24.47;64.16
70248;BME280;57641;51.416;5.506;2023-09-18T01:03:10;100585.47;;;24.48;64.12
70248;BME280;57641;51.416;5.506;2023-09-18T01:05:36;100570.47;;;24.46;64.10
70248;BME280;57641;51.416;5.506;2023-09-18T01:08:02;100580.28;;;24.47;64.16
70248;BME280;57641;51.416;5.506;2023-09-18T01:10:40;100572.13;;;24.47;64.30
70248;BME280;57641;51.416;5.506;2023-09-18T01:13:11;100571.03;;;24.48;64.05
70248;BME280;57641;51.416;5.506;2023-09-18T01:15:52;100560.69;;;24.50;64.21
70248;BME280;57641;51.416;5.506;2023-09-18T01:18:19;100559.88;;;24.49;64.04
70248;BME280;57641;51.416;5.506;2023-09-18T01:20:45;100567.56;;;24.52;64.12
70248;BME280;57641;51.416;5.506;2023-09-18T01:23:10;100557.72;;;24.51;63.92
70248;BME280;57641;51.416;5.506;2023-09-18T01:25:37;100555.59;;;24.53;63.92
70248;BME280;57641;51.416;5.506;2023-09-18T01:28:03;100550.63;;;24.50;63.98
70248;BME280;57641;51.416;5.506;2023-09-18T01:30:28;100551.44;;;24.51;63.93
70248;BME280;57641;51.416;5.506;2023-09-18T01:32:57;100556.00;;;24.45;64.05
70248;BME280;57641;51.416;5.506;2023-09-18T01:35:26;100546.31;;;24.54;63.93
70248;BME280;57641;51.416;5.506;2023-09-18T01:37:59;100548.56;;;24.57;63.74
70248;BME280;57641;51.416;5.506;2023-09-18T01:40:25;100548.78;;;24.56;63.76
70248;BME280;57641;51.416;5.506;2023-09-18T01:42:52;100549.88;;;24.55;63.58
70248;BME280;57641;51.416;5.506;2023-09-18T01:45:17;100539.78;;;24.55;63.72
70248;BME280;57641;51.416;5.506;2023-09-18T01:47:43;100536.03;;;24.39;64.23
70248;BME280;57641;51.416;5.506;2023-09-18T01:50:09;100539.22;;;24.53;64.05
70248;BME280;57641;51.416;5.506;2023-09-18T01:52:35;100536.69;;;24.47;64.00
70248;BME280;57641;51.416;5.506;2023-09-18T01:55:01;100535.16;;;24.56;64.06
70248;BME280;57641;51.416;5.506;2023-09-18T01:57:30;100536.00;;;24.56;63.86
70248;BME280;57641;51.416;5.506;2023-09-18T01:59:55;100531.06;;;24.53;63.97
70248;BME280;57641;51.416;5.506;2023-09-18T02:02:20;100537.13;;;24.60;63.52
70248;BME280;57641;51.416;5.506;2023-09-18T02:04:46;100526.28;;;24.65;63.24
70248;BME280;57641;51.416;5.506;2023-09-18T02:07:11;100524.91;;;24.63;63.55
70248;BME280;57641;51.416;5.506;2023-09-18T02:09:37;100513.19;;;24.62;63.64
70248;BME280;57641;51.416;5.506;2023-09-18T02:12:03;100514.06;;;24.68;63.29
70248;BME280;57641;51.416;5.506;2023-09-18T02:14:29;100515.44;;;24.70;62.79
70248;BME280;57641;51.416;5.506;2023-09-18T02:16:55;100510.00;;;24.70;63.11
70248;BME280;57641;51.416;5.506;2023-09-18T02:19:21;100515.13;;;24.67;63.31
70248;BME280;57641;51.416;5.506;2023-09-18T02:21:46;100514.88;;;24.68;63.10
70248;BME280;57641;51.416;5.506;2023-09-18T02:24:12;100502.28;;;24.62;63.51
70248;BME280;57641;51.416;5.506;2023-09-18T02:26:37;100505.50;;;24.59;63.47
70248;BME280;57641;51.416;5.506;2023-09-18T02:29:07;100492.31;;;24.51;63.62
70248;BME280;57641;51.416;5.506;2023-09-18T02:31:33;100482.94;;;24.64;63.36
70248;BME280;57641;51.416;5.506;2023-09-18T02:33:58;100486.16;;;24.61;63.46
70248;BME280;57641;51.416;5.506;2023-09-18T02:36:24;100494.81;;;24.53;63.91
70248;BME280;57641;51.416;5.506;2023-09-18T02:38:49;100499.09;;;24.49;63.92
70248;BME280;57641;51.416;5.506;2023-09-18T02:41:14;100495.41;;;24.38;64.44
70248;BME280;57641;51.416;5.506;2023-09-18T02:43:40;100488.06;;;24.38;64.53
70248;BME280;57641;51.416;5.506;2023-09-18T02:46:06;100491.00;;;24.32;64.53
70248;BME280;57641;51.416;5.506;2023-09-18T02:48:32;100463.03;;;24.42;64.29
70248;BME280;57641;51.416;5.506;2023-09-18T02:51:01;100458.84;;;24.34;64.04
70248;BME280;57641;51.416;5.506;2023-09-18T02:53:27;100453.78;;;24.43;64.10
70248;BME280;57641;51.416;5.506;2023-09-18T02:55:55;100448.34;;;24.43;63.53
70248;BME280;57641;51.416;5.506;2023-09-18T02:58:21;100444.09;;;24.52;63.90
70248;BME280;57641;51.416;5.506;2023-09-18T03:00:49;100430.25;;;24.58;63.51
70248;BME280;57641;51.416;5.506;2023-09-18T03:03:16;100436.78;;;24.57;63.38
70248;BME280;57641;51.416;5.506;2023-09-18T03:05:43;100435.84;;;24.47;63.67
70248;BME280;57641;51.416;5.506;2023-09-18T03:08:11;100442.19;;;24.52;63.79
70248;BME280;57641;51.416;5.506;2023-09-18T03:10:39;100448.94;;;24.50;63.91
70248;BME280;57641;51.416;5.506;2023-09-18T03:13:06;100442.19;;;24.52;64.03
70248;BME280;57641;51.416;5.506;2023-09-18T03:15:33;100435.31;;;24.50;64.14
70248;BME280;57641;51.416;5.506;2023-09-18T03:18:00;100448.06;;;24.44;63.89
70248;BME280;57641;51.416;5.506;2023-09-18T03:20:26;100446.16;;;24.45;64.33
70248;BME280;57641;51.416;5.506;2023-09-18T03:22:54;100457.25;;;24.38;64.70
70248;BME280;57641;51.416;5.506;2023-09-18T03:25:20;100452.69;;;24.44;64.40
70248;BME280;57641;51.416;5.506;2023-09-18T03:27:47;100464.88;;;24.36;64.74
70248;BME280;57641;51.416;5.506;2023-09-18T03:30:12;100479.25;;;24.31;64.61
70248;BME280;57641;51.416;5.506;2023-09-18T03:32:41;100477.09;;;24.33;64.40
70248;BME280;57641;51.416;5.506;2023-09-18T03:35:08;100453.09;;;24.30;64.13
70248;BME280;57641;51.416;5.506;2023-09-18T03:37:35;100451.25;;;24.36;64.20
70248;BME280;57641;51.416;5.506;2023-09-18T03:40:00;100445.28;;;24.39;64.41
70248;BME280;57641;51.416;5.506;2023-09-18T03:42:27;100450.78;;;24.22;64.94
70248;BME280;57641;51.416;5.506;2023-09-18T03:44:52;100445.44;;;24.11;65.48
70248;BME280;57641;51.416;5.506;2023-09-18T03:47:17;100454.75;;;24.31;65.05
70248;BME280;57641;51.416;5.506;2023-09-18T03:49:43;100458.66;;;24.40;64.90
70248;BME280;57641;51.416;5.506;2023-09-18T03:52:08;100443.31;;;24.34;65.33
70248;BME280;57641;51.416;5.506;2023-09-18T03:54:33;100425.78;;;24.09;66.65
70248;BME280;57641;51.416;5.506;2023-09-18T03:56:59;100422.34;;;24.35;66.12
70248;BME280;57641;51.416;5.506;2023-09-18T03:59:24;100428.63;;;24.35;66.52
70248;BME280;57641;51.416;5.506;2023-09-18T04:01:50;100427.28;;;24.16;67.23
70248;BME280;57641;51.416;5.506;2023-09-18T04:04:15;100448.81;;;24.18;67.56
70248;BME280;57641;51.416;5.506;2023-09-18T04:06:42;100448.97;;;24.11;67.77
70248;BME280;57641;51.416;5.506;2023-09-18T04:09:08;100459.53;;;24.08;67.87
70248;BME280;57641;51.416;5.506;2023-09-18T04:11:34;100452.84;;;24.15;68.10
70248;BME280;57641;51.416;5.506;2023-09-18T04:14:01;100449.56;;;24.13;68.49
70248;BME280;57641;51.416;5.506;2023-09-18T04:16:29;100439.25;;;24.15;68.29
70248;BME280;57641;51.416;5.506;2023-09-18T04:18:56;100441.97;;;24.15;68.45
70248;BME280;57641;51.416;5.506;2023-09-18T04:21:22;100429.34;;;24.09;68.61
70248;BME280;57641;51.416;5.506;2023-09-18T04:23:47;100428.25;;;24.27;67.82
70248;BME280;57641;51.416;5.506;2023-09-18T04:26:13;100417.59;;;24.25;67.86
70248;BME280;57641;51.416;5.506;2023-09-18T04:28:41;100412.41;;;24.24;67.88
70248;BME280;57641;51.416;5.506;2023-09-18T04:31:07;100419.81;;;24.28;67.67
70248;BME280;57641;51.416;5.506;2023-09-18T04:33:33;100411.81;;;24.22;67.56
70248;BME280;57641;51.416;5.506;2023-09-18T04:35:58;100408.19;;;24.16;67.24
70248;BME280;57641;51.416;5.506;2023-09-18T04:38:24;100393.75;;;24.37;66.70
70248;BME280;57641;51.416;5.506;2023-09-18T04:40:49;100384.09;;;24.25;66.43
70248;BME280;57641;51.416;5.506;2023-09-18T04:43:14;100371.91;;;24.11;66.20
70248;BME280;57641;51.416;5.506;2023-09-18T04:45:40;100377.16;;;24.17;65.84
70248;BME280;57641;51.416;5.506;2023-09-18T04:48:05;100381.59;;;24.23;65.53
70248;BME280;57641;51.416;5.506;2023-09-18T04:50:32;100368.56;;;24.25;65.37
70248;BME280;57641;51.416;5.506;2023-09-18T04:52:59;100376.28;;;24.33;64.94
70248;BME280;57641;51.416;5.506;2023-09-18T04:55:24;100360.69;;;24.29;65.18
70248;BME280;57641;51.416;5.506;2023-09-18T04:57:50;100368.59;;;24.09;65.63
70248;BME280;57641;51.416;5.506;2023-09-18T05:00:16;100371.38;;;24.14;64.99
70248;BME280;57641;51.416;5.506;2023-09-18T05:02:42;100371.63;;;24.12;65.42
70248;BME280;57641;51.416;5.506;2023-09-18T05:05:08;100375.13;;;24.08;65.40
70248;BME280;57641;51.416;5.506;2023-09-18T05:07:36;100371.56;;;24.07;65.12
70248;BME280;57641;51.416;5.506;2023-09-18T05:10:05;100373.53;;;24.12;64.85
70248;BME280;57641;51.416;5.506;2023-09-18T05:12:31;100373.41;;;24.02;65.52
70248;BME280;57641;51.416;5.506;2023-09-18T05:14:57;100376.53;;;24.10;65.16
70248;BME280;57641;51.416;5.506;2023-09-18T05:17:39;100379.41;;;23.82;65.90
70248;BME280;57641;51.416;5.506;2023-09-18T05:20:06;100378.28;;;23.78;66.04
70248;BME280;57641;51.416;5.506;2023-09-18T05:22:32;100374.63;;;23.89;65.35
70248;BME280;57641;51.416;5.506;2023-09-18T05:24:58;100373.59;;;23.95;65.12
70248;BME280;57641;51.416;5.506;2023-09-18T05:27:24;100364.78;;;23.88;65.28
70248;BME280;57641;51.416;5.506;2023-09-18T05:29:50;100375.25;;;23.58;66.27
70248;BME280;57641;51.416;5.506;2023-09-18T05:32:16;100365.59;;;23.67;65.88
70248;BME280;57641;51.416;5.506;2023-09-18T05:34:41;100363.34;;;23.64;66.13
70248;BME280;57641;51.416;5.506;2023-09-18T05:37:07;100378.53;;;23.60;65.60
70248;BME280;57641;51.416;5.506;2023-09-18T05:39:32;100369.69;;;23.69;65.66
70248;BME280;57641;51.416;5.506;2023-09-18T05:41:58;100371.06;;;23.50;66.01
70248;BME280;57641;51.416;5.506;2023-09-18T05:44:23;100375.91;;;23.48;65.98
70248;BME280;57641;51.416;5.506;2023-09-18T05:46:49;100394.25;;;23.52;65.48
70248;BME280;57641;51.416;5.506;2023-09-18T05:49:14;100386.47;;;23.61;65.26
70248;BME280;57641;51.416;5.506;2023-09-18T05:51:39;100380.81;;;23.46;65.22
70248;BME280;57641;51.416;5.506;2023-09-18T05:54:05;100389.44;;;23.60;64.94
70248;BME280;57641;51.416;5.506;2023-09-18T05:56:30;100400.81;;;23.40;65.92
70248;BME280;57641;51.416;5.506;2023-09-18T05:58:56;100401.63;;;23.40;66.05
70248;BME280;57641;51.416;5.506;2023-09-18T06:01:22;100404.50;;;23.34;65.96
70248;BME280;57641;51.416;5.506;2023-09-18T06:03:47;100414.16;;;23.41;65.90
70248;BME280;57641;51.416;5.506;2023-09-18T06:06:13;100423.38;;;23.24;65.45
70248;BME280;57641;51.416;5.506;2023-09-18T06:08:39;100426.69;;;23.26;66.15
70248;BME280;57641;51.416;5.506;2023-09-18T06:11:04;100426.03;;;23.19;66.05
70248;BME280;57641;51.416;5.506;2023-09-18T06:13:30;100423.28;;;23.02;66.35
70248;BME280;57641;51.416;5.506;2023-09-18T06:15:55;100412.53;;;22.79;67.64
70248;BME280;57641;51.416;5.506;2023-09-18T06:18:22;100413.94;;;22.81;66.76
70248;BME280;57641;51.416;5.506;2023-09-18T06:20:48;100421.41;;;23.19;65.99
70248;BME280;57641;51.416;5.506;2023-09-18T06:23:14;100425.88;;;23.42;65.63
70248;BME280;57641;51.416;5.506;2023-09-18T06:25:40;100436.41;;;23.38;65.46
70248;BME280;57641;51.416;5.506;2023-09-18T06:28:05;100433.88;;;23.15;65.58
70248;BME280;57641;51.416;5.506;2023-09-18T06:30:31;100430.16;;;23.21;65.91
70248;BME280;57641;51.416;5.506;2023-09-18T06:33:02;100423.81;;;23.15;66.05
70248;BME280;57641;51.416;5.506;2023-09-18T06:35:29;100437.81;;;23.24;65.79
70248;BME280;57641;51.416;5.506;2023-09-18T06:37:54;100450.09;;;23.27;66.17
70248;BME280;57641;51.416;5.506;2023-09-18T06:40:23;100454.66;;;23.54;64.81
70248;BME280;57641;51.416;5.506;2023-09-18T06:42:49;100452.25;;;23.41;65.12
70248;BME280;57641;51.416;5.506;2023-09-18T06:45:15;100458.06;;;23.62;64.43
70248;BME280;57641;51.416;5.506;2023-09-18T06:47:40;100449.03;;;23.44;65.03
70248;BME280;57641;51.416;5.506;2023-09-18T06:50:06;100456.63;;;23.59;64.54
70248;BME280;57641;51.416;5.506;2023-09-18T06:52:32;100464.41;;;23.50;64.88
70248;BME280;57641;51.416;5.506;2023-09-18T06:54:57;100471.16;;;23.48;64.56
70248;BME280;57641;51.416;5.506;2023-09-18T06:57:24;100472.97;;;23.59;64.58
70248;BME280;57641;51.416;5.506;2023-09-18T06:59:49;100475.97;;;23.58;64.29
70248;BME280;57641;51.416;5.506;2023-09-18T07:02:15;100470.41;;;23.69;63.96
70248;BME280;57641;51.416;5.506;2023-09-18T07:04:41;100471.81;;;23.55;64.29
70248;BME280;57641;51.416;5.506;2023-09-18T07:07:12;100463.19;;;23.58;64.05
70248;BME280;57641;51.416;5.506;2023-09-18T07:09:39;100463.50;;;23.62;63.74
70248;BME280;57641;51.416;5.506;2023-09-18T07:12:06;100481.06;;;23.54;64.38
70248;BME280;57641;51.416;5.506;2023-09-18T07:14:31;100479.50;;;23.58;63.92
70248;BME280;57641;51.416;5.506;2023-09-18T07:16:56;100495.09;;;23.46;64.17
70248;BME280;57641;51.416;5.506;2023-09-18T07:19:22;100485.34;;;23.67;63.31
70248;BME280;57641;51.416;5.506;2023-09-18T07:21:47;100501.72;;;23.38;64.32
70248;BME280;57641;51.416;5.506;2023-09-18T07:24:13;100495.28;;;23.44;64.05
70248;BME280;57641;51.416;5.506;2023-09-18T07:26:44;100498.06;;;23.61;63.73
70248;BME280;57641;51.416;5.506;2023-09-18T07:29:10;100499.50;;;23.07;65.06
70248;BME280;57641;51.416;5.506;2023-09-18T07:31:35;100500.44;;;23.12;64.57
70248;BME280;57641;51.416;5.506;2023-09-18T07:34:02;100502.44;;;22.89;65.43
70248;BME280;57641;51.416;5.506;2023-09-18T07:36:29;100505.50;;;23.37;63.98
70248;BME280;57641;51.416;5.506;2023-09-18T07:38:55;100500.38;;;23.24;64.59
70248;BME280;57641;51.416;5.506;2023-09-18T07:41:22;100497.53;;;23.02;64.87
70248;BME280;57641;51.416;5.506;2023-09-18T07:43:47;100495.03;;;23.29;63.81
70248;BME280;57641;51.416;5.506;2023-09-18T07:46:13;100501.59;;;23.16;64.04
70248;BME280;57641;51.416;5.506;2023-09-18T07:48:38;100511.41;;;23.46;64.17
70248;BME280;57641;51.416;5.506;2023-09-18T07:51:04;100512.94;;;23.42;64.09
70248;BME280;57641;51.416;5.506;2023-09-18T07:53:29;100505.22;;;23.50;63.69
70248;BME280;57641;51.416;5.506;2023-09-18T07:55:56;100501.28;;;23.30;63.91
70248;BME280;57641;51.416;5.506;2023-09-18T07:58:27;100497.66;;;23.52;63.10
70248;BME280;57641;51.416;5.506;2023-09-18T08:00:56;100506.06;;;23.68;62.96
70248;BME280;57641;51.416;5.506;2023-09-18T08:03:25;100504.88;;;23.64;63.05
70248;BME280;57641;51.416;5.506;2023-09-18T08:05:52;100497.91;;;23.39;63.59
70248;BME280;57641;51.416;5.506;2023-09-18T08:08:19;100497.47;;;23.59;62.71
70248;BME280;57641;51.416;5.506;2023-09-18T08:10:49;100485.22;;;23.45;62.61
70248;BME280;57641;51.416;5.506;2023-09-18T08:13:15;100494.66;;;23.54;62.46
70248;BME280;57641;51.416;5.506;2023-09-18T08:15:41;100513.75;;;23.42;62.46
70248;BME280;57641;51.416;5.506;2023-09-18T08:18:06;100515.03;;;23.51;62.72
70248;BME280;57641;51.416;5.506;2023-09-18T08:20:32;100517.25;;;23.54;62.53
70248;BME280;57641;51.416;5.506;2023-09-18T08:22:58;100504.25;;;23.73;62.37
70248;BME280;57641;51.416;5.506;2023-09-18T08:25:28;100523.84;;;23.58;62.26
70248;BME280;57641;51.416;5.506;2023-09-18T08:27:53;100519.66;;;23.68;62.24
70248;BME280;57641;51.416;5.506;2023-09-18T08:30:19;100531.09;;;23.53;62.55
70248;BME280;57641;51.416;5.506;2023-09-18T08:32:46;100543.09;;;23.69;62.25
70248;BME280;57641;51.416;5.506;2023-09-18T08:35:13;100533.69;;;23.76;62.20
70248;BME280;57641;51.416;5.506;2023-09-18T08:37:42;100545.72;;;23.64;62.63
70248;BME280;57641;51.416;5.506;2023-09-18T08:40:13;100547.38;;;23.65;61.79
70248;BME280;57641;51.416;5.506;2023-09-18T08:42:46;100541.53;;;23.89;61.56
70248;BME280;57641;51.416;5.506;2023-09-18T08:45:19;100551.97;;;23.64;62.30
70248;BME280;57641;51.416;5.506;2023-09-18T08:47:46;100559.25;;;23.75;61.19
70248;BME280;57641;51.416;5.506;2023-09-18T08:50:13;100557.19;;;23.82;61.42
70248;BME280;57641;51.416;5.506;2023-09-18T08:52:39;100546.88;;;24.01;60.74
70248;BME280;57641;51.416;5.506;2023-09-18T08:55:06;100543.34;;;23.84;61.31
70248;BME280;57641;51.416;5.506;2023-09-18T08:57:33;100540.44;;;24.07;60.96
70248;BME280;57641;51.416;5.506;2023-09-18T09:00:01;100540.28;;;23.97;60.84
70248;BME280;57641;51.416;5.506;2023-09-18T09:02:32;100542.00;;;23.70;61.98
70248;BME280;57641;51.416;5.506;2023-09-18T09:04:58;100544.97;;;23.85;61.52
70248;BME280;57641;51.416;5.506;2023-09-18T09:07:25;100533.09;;;24.08;61.11
70248;BME280;57641;51.416;5.506;2023-09-18T09:09:50;100536.97;;;24.12;60.75
70248;BME280;57641;51.416;5.506;2023-09-18T09:12:15;100538.47;;;23.86;61.57
70248;BME280;57641;51.416;5.506;2023-09-18T09:15:02;100548.63;;;23.74;61.99
70248;BME280;57641;51.416;5.506;2023-09-18T09:17:29;100550.84;;;24.10;61.29
70248;BME280;57641;51.416;5.506;2023-09-18T09:20:08;100546.09;;;24.39;60.33
70248;BME280;57641;51.416;5.506;2023-09-18T09:22:34;100552.50;;;23.78;61.46
70248;BME280;57641;51.416;5.506;2023-09-18T09:24:59;100548.84;;;24.22;61.06
70248;BME280;57641;51.416;5.506;2023-09-18T09:27:25;100552.47;;;24.28;61.09
70248;BME280;57641;51.416;5.506;2023-09-18T09:30:00;100550.19;;;24.58;59.42
70248;BME280;57641;51.416;5.506;2023-09-18T09:32:31;100558.91;;;24.38;60.52
70248;BME280;57641;51.416;5.506;2023-09-18T09:34:57;100559.81;;;24.44;59.30
70248;BME280;57641;51.416;5.506;2023-09-18T09:37:30;100552.94;;;24.58;58.67
70248;BME280;57641;51.416;5.506;2023-09-18T09:39:56;100558.50;;;24.68;58.72
70248;BME280;57641;51.416;5.506;2023-09-18T09:42:22;100562.91;;;24.31;59.21
70248;BME280;57641;51.416;5.506;2023-09-18T09:45:02;100559.13;;;24.54;57.96
70248;BME280;57641;51.416;5.506;2023-09-18T09:47:33;100551.31;;;24.40;59.70
70248;BME280;57641;51.416;5.506;2023-09-18T09:50:06;100550.41;;;24.73;58.87
70248;BME280;57641;51.416;5.506;2023-09-18T09:52:33;100544.81;;;24.63;58.28
70248;BME280;57641;51.416;5.506;2023-09-18T09:54:59;100545.06;;;24.62;57.92
70248;BME280;57641;51.416;5.506;2023-09-18T09:57:24;100546.53;;;24.91;57.95
70248;BME280;57641;51.416;5.506;2023-09-18T09:59:49;100555.09;;;24.78;58.83
70248;BME280;57641;51.416;5.506;2023-09-18T10:02:15;100562.13;;;24.74;58.47
70248;BME280;57641;51.416;5.506;2023-09-18T10:04:45;100569.53;;;24.78;57.63
70248;BME280;57641;51.416;5.506;2023-09-18T10:07:15;100585.06;;;24.56;58.29
70248;BME280;57641;51.416;5.506;2023-09-18T10:09:42;100585.72;;;25.07;57.94
70248;BME280;57641;51.416;5.506;2023-09-18T10:12:15;100589.25;;;24.64;58.29
70248;BME280;57641;51.416;5.506;2023-09-18T10:14:47;100599.50;;;24.57;58.55
70248;BME280;57641;51.416;5.506;2023-09-18T10:17:18;100597.53;;;24.91;58.34
70248;BME280;57641;51.416;5.506;2023-09-18T10:20:09;100592.97;;;24.96;57.96
70248;BME280;57641;51.416;5.506;2023-09-18T10:22:54;100590.00;;;24.98;58.25
70248;BME280;57641;51.416;5.506;2023-09-18T10:25:23;100588.91;;;25.20;58.13
70248;BME280;57641;51.416;5.506;2023-09-18T10:27:51;100583.72;;;24.97;58.50
70248;BME280;57641;51.416;5.506;2023-09-18T10:30:19;100584.81;;;25.23;57.76
70248;BME280;57641;51.416;5.506;2023-09-18T10:32:48;100585.28;;;25.15;57.68
70248;BME280;57641;51.416;5.506;2023-09-18T10:35:15;100595.19;;;25.21;57.84
70248;BME280;57641;51.416;5.506;2023-09-18T10:37:45;100590.44;;;25.38;57.52
70248;BME280;57641;51.416;5.506;2023-09-18T10:40:12;100591.22;;;25.34;57.06
70248;BME280;57641;51.416;5.506;2023-09-18T10:42:39;100593.34;;;25.27;57.80
70248;BME280;57641;51.416;5.506;2023-09-18T10:45:06;100586.88;;;25.11;57.68
70248;BME280;57641;51.416;5.506;2023-09-18T10:47:38;100591.50;;;25.32;57.51
70248;BME280;57641;51.416;5.506;2023-09-18T10:50:06;100584.56;;;25.24;57.06
70248;BME280;57641;51.416;5.506;2023-09-18T10:52:34;100576.53;;;25.40;56.97
70248;BME280;57641;51.416;5.506;2023-09-18T10:55:01;100577.91;;;25.37;56.07
70248;BME280;57641;51.416;5.506;2023-09-18T10:57:35;100570.97;;;25.30;57.08
70248;BME280;57641;51.416;5.506;2023-09-18T11:00:01;100581.91;;;25.30;56.87
70248;BME280;57641;51.416;5.506;2023-09-18T11:02:39;100577.41;;;25.18;56.15
70248;BME280;57641;51.416;5.506;2023-09-18T11:05:05;100571.50;;;25.27;56.42
70248;BME280;57641;51.416;5.506;2023-09-18T11:07:31;100576.66;;;24.79;56.73
70248;BME280;57641;51.416;5.506;2023-09-18T11:09:57;100569.09;;;25.30;56.61
70248;BME280;57641;51.416;5.506;2023-09-18T11:12:42;100567.09;;;25.47;56.53
70248;BME280;57641;51.416;5.506;2023-09-18T11:15:09;100570.50;;;25.33;56.90
70248;BME280;57641;51.416;5.506;2023-09-18T11:17:58;100571.88;;;25.62;56.17
70248;BME280;57641;51.416;5.506;2023-09-18T11:20:26;100575.09;;;25.05;55.94
70248;BME280;57641;51.416;5.506;2023-09-18T11:22:58;100583.38;;;25.64;55.18
70248;BME280;57641;51.416;5.506;2023-09-18T11:28:02;100570.53;;;25.38;54.39
70248;BME280;57641;51.416;5.506;2023-09-18T11:30:28;100583.56;;;25.31;55.42
70248;BME280;57641;51.416;5.506;2023-09-18T11:32:55;100577.78;;;25.27;54.49
70248;BME280;57641;51.416;5.506;2023-09-18T11:35:21;100580.09;;;25.13;54.00
70248;BME280;57641;51.416;5.506;2023-09-18T11:37:47;100587.59;;;25.28;53.49
70248;BME280;57641;51.416;5.506;2023-09-18T11:40:30;100580.16;;;25.45;53.49
70248;BME280;57641;51.416;5.506;2023-09-18T11:43:22;100569.94;;;25.57;53.04
70248;BME280;57641;51.416;5.506;2023-09-18T11:45:51;100569.53;;;26.07;51.90
70248;BME280;57641;51.416;5.506;2023-09-18T11:48:18;100561.94;;;26.15;52.46
70248;BME280;57641;51.416;5.506;2023-09-18T11:50:44;100560.75;;;26.37;52.19
70248;BME280;57641;51.416;5.506;2023-09-18T11:53:11;100560.88;;;26.21;51.20
70248;BME280;57641;51.416;5.506;2023-09-18T11:55:40;100567.41;;;26.15;51.72
70248;BME280;57641;51.416;5.506;2023-09-18T11:58:06;100570.53;;;26.28;51.52
70248;BME280;57641;51.416;5.506;2023-09-18T12:00:34;100558.66;;;26.60;51.11
70248;BME280;57641;51.416;5.506;2023-09-18T12:03:19;100557.19;;;26.00;50.84
70248;BME280;57641;51.416;5.506;2023-09-18T12:06:01;100548.16;;;26.36;51.22
70248;BME280;57641;51.416;5.506;2023-09-18T12:08:31;100553.63;;;25.99;50.35
70248;BME280;57641;51.416;5.506;2023-09-18T12:10:57;100557.97;;;26.27;50.99
70248;BME280;57641;51.416;5.506;2023-09-18T12:13:26;100556.28;;;25.89;49.25
70248;BME280;57641;51.416;5.506;2023-09-18T12:15:57;100556.59;;;25.93;49.04
70248;BME280;57641;51.416;5.506;2023-09-18T12:18:24;100549.28;;;26.03;49.56
70248;BME280;57641;51.416;5.506;2023-09-18T12:20:50;100557.16;;;25.95;49.88
70248;BME280;57641;51.416;5.506;2023-09-18T12:23:17;100552.28;;;26.02;49.96
70248;BME280;57641;51.416;5.506;2023-09-18T12:25:48;100537.75;;;25.96;50.16
70248;BME280;57641;51.416;5.506;2023-09-18T12:28:14;100549.38;;;25.82;50.38
70248;BME280;57641;51.416;5.506;2023-09-18T12:30:43;100546.16;;;25.85;50.41
70248;BME280;57641;51.416;5.506;2023-09-18T12:33:12;100532.50;;;25.85;50.63
70248;BME280;57641;51.416;5.506;2023-09-18T12:35:40;100536.25;;;26.16;51.46
70248;BME280;57641;51.416;5.506;2023-09-18T12:38:16;100538.31;;;25.98;50.84
70248;BME280;57641;51.416;5.506;2023-09-18T12:40:44;100528.47;;;25.97;49.45
70248;BME280;57641;51.416;5.506;2023-09-18T12:43:12;100537.38;;;25.83;50.47
70248;BME280;57641;51.416;5.506;2023-09-18T12:45:42;100533.47;;;26.05;48.89
70248;BME280;57641;51.416;5.506;2023-09-18T12:48:09;100527.72;;;26.07;49.64
70248;BME280;57641;51.416;5.506;2023-09-18T12:50:35;100534.69;;;25.88;50.60
70248;BME280;57641;51.416;5.506;2023-09-18T12:53:14;100523.47;;;26.21;50.19
70248;BME280;57641;51.416;5.506;2023-09-18T12:55:41;100520.53;;;26.28;49.73